createdAt,value
2018-06-29T00:00:07.977Z,2.70
2018-06-29T00:02:36.864Z,2.60
2018-06-29T00:05:06.403Z,2.90
2018-06-29T00:07:35.305Z,10.87
2018-06-29T00:10:05.466Z,3.80
2018-06-29T00:12:34.320Z,4.03
2018-06-29T00:15:03.196Z,6.93
2018-06-29T00:17:32.087Z,3.87
2018-06-29T00:20:00.930Z,3.67
2018-06-29T00:22:29.801Z,4.50
2018-06-29T00:24:58.645Z,4.13
2018-06-29T00:27:27.544Z,3.17
2018-06-29T00:29:56.378Z,5.13
2018-06-29T00:32:25.223Z,4.90
2018-06-29T00:34:54.157Z,5.73
2018-06-29T00:37:23.021Z,6.37
2018-06-29T00:39:51.904Z,5.43
2018-06-29T00:42:20.847Z,3.20
2018-06-29T00:44:49.720Z,4.97
2018-06-29T00:47:18.592Z,8.27
2018-06-29T00:49:47.498Z,6.10
2018-06-29T00:52:16.352Z,5.90
2018-06-29T00:54:45.193Z,5.20
2018-06-29T00:57:14.055Z,6.13
2018-06-29T00:59:42.924Z,4.90
2018-06-29T01:02:11.800Z,5.97
2018-06-29T01:04:40.760Z,5.43
2018-06-29T01:07:09.631Z,4.73
2018-06-29T01:09:38.477Z,7.20
2018-06-29T01:12:07.378Z,4.43
2018-06-29T01:14:36.227Z,5.47
2018-06-29T01:17:05.068Z,4.67
2018-06-29T01:19:33.938Z,8.97
2018-06-29T01:22:03.677Z,5.00
2018-06-29T01:24:32.308Z,5.87
2018-06-29T01:27:01.145Z,5.77
2018-06-29T01:29:30.203Z,10.87
2018-06-29T01:31:59.198Z,6.77
2018-06-29T01:34:28.455Z,11.03
2018-06-29T01:36:57.349Z,9.03
2018-06-29T01:39:26.523Z,6.90
2018-06-29T01:41:55.502Z,7.07
2018-06-29T01:44:24.363Z,11.17
2018-06-29T01:46:53.320Z,8.47
2018-06-29T01:49:22.203Z,9.60
2018-06-29T01:51:51.091Z,7.93
2018-06-29T01:54:19.943Z,9.43
2018-06-29T01:56:48.764Z,7.80
2018-06-29T01:59:17.625Z,5.37
2018-06-29T02:01:46.458Z,10.33
2018-06-29T02:04:15.291Z,7.42
2018-06-29T02:06:44.138Z,8.03
2018-06-29T02:09:12.988Z,8.23
2018-06-29T02:11:42.802Z,12.20
2018-06-29T02:14:11.655Z,8.97
2018-06-29T02:16:40.512Z,8.50
2018-06-29T02:19:09.371Z,6.77
2018-06-29T02:21:40.108Z,7.57
2018-06-29T02:24:08.935Z,9.40
2018-06-29T02:26:37.838Z,12.23
2018-06-29T02:29:06.745Z,11.83
2018-06-29T02:31:35.525Z,9.50
2018-06-29T02:34:04.438Z,10.57
2018-06-29T02:36:33.320Z,8.77
2018-06-29T02:39:02.268Z,10.13
2018-06-29T02:41:31.231Z,9.67
2018-06-29T02:44:00.097Z,8.30
2018-06-29T02:46:29.081Z,14.13
2018-06-29T02:48:57.950Z,9.03
2018-06-29T02:51:26.830Z,9.43
2018-06-29T02:53:55.683Z,7.40
2018-06-29T02:56:24.538Z,8.27
2018-06-29T02:58:54.273Z,13.67
2018-06-29T03:01:23.140Z,11.20
2018-06-29T03:03:51.990Z,9.03
2018-06-29T03:06:20.843Z,7.20
2018-06-29T03:08:49.731Z,8.10
2018-06-29T03:11:18.581Z,9.97
2018-06-29T03:13:47.774Z,7.73
2018-06-29T03:16:16.598Z,6.10
2018-06-29T03:18:45.403Z,6.60
2018-06-29T03:21:14.309Z,9.33
2018-06-29T03:23:43.161Z,9.97
2018-06-29T03:26:12.041Z,8.37
2018-06-29T03:28:40.959Z,7.23
2018-06-29T03:31:09.876Z,8.13
2018-06-29T03:33:39.114Z,7.53
2018-06-29T03:36:07.966Z,9.23
2018-06-29T03:38:36.799Z,6.67
2018-06-29T03:41:05.674Z,10.00
2018-06-29T03:43:34.550Z,6.53
2018-06-29T03:46:03.497Z,5.97
2018-06-29T03:48:32.369Z,9.43
2018-06-29T03:51:01.225Z,9.27
2018-06-29T03:53:30.109Z,6.33
2018-06-29T03:55:59.088Z,7.60
2018-06-29T03:58:27.928Z,6.70
2018-06-29T04:00:56.786Z,9.13
2018-06-29T04:03:25.698Z,10.57
2018-06-29T04:05:54.941Z,7.57
2018-06-29T04:08:23.950Z,9.90
2018-06-29T04:10:52.808Z,6.97
2018-06-29T04:13:21.695Z,7.42
2018-06-29T04:15:50.611Z,4.92
2018-06-29T04:18:19.838Z,8.30
2018-06-29T04:20:50.272Z,6.77
2018-06-29T04:23:19.116Z,5.07
2018-06-29T04:25:47.968Z,7.07
2018-06-29T04:28:16.894Z,8.17
2018-06-29T04:30:45.742Z,4.13
2018-06-29T04:33:14.625Z,4.53
2018-06-29T04:35:43.522Z,3.87
2018-06-29T04:38:12.497Z,7.23
2018-06-29T04:40:42.270Z,5.00
2018-06-29T04:43:11.120Z,6.63
2018-06-29T04:45:39.949Z,7.07
2018-06-29T04:48:08.806Z,4.40
2018-06-29T04:50:37.996Z,4.37
2018-06-29T04:53:07.035Z,6.47
2018-06-29T04:55:36.168Z,6.57
2018-06-29T04:58:05.403Z,5.83
2018-06-29T05:00:34.256Z,5.97
2018-06-29T05:03:03.185Z,4.93
2018-06-29T05:05:33.060Z,7.67
2018-06-29T05:08:05.860Z,5.97
2018-06-29T05:10:34.793Z,6.67
2018-06-29T05:13:04.611Z,4.20
2018-06-29T05:15:33.569Z,6.27
2018-06-29T05:18:02.827Z,7.73
2018-06-29T05:20:31.662Z,7.80
2018-06-29T05:23:00.588Z,6.67
2018-06-29T05:25:29.437Z,6.97
2018-06-29T05:27:58.308Z,6.83
2018-06-29T05:30:27.417Z,3.87
2018-06-29T05:32:57.173Z,6.60
2018-06-29T05:35:26.782Z,3.70
2018-06-29T05:37:55.732Z,5.50
2018-06-29T05:40:24.571Z,7.07
2018-06-29T05:42:53.981Z,6.50
2018-06-29T05:45:24.187Z,5.17
2018-06-29T05:47:53.321Z,4.67
2018-06-29T05:50:22.189Z,5.33
2018-06-29T05:52:51.176Z,3.97
2018-06-29T05:55:21.257Z,4.33
2018-06-29T05:57:49.825Z,3.27
2018-06-29T06:00:18.646Z,5.77
2018-06-29T06:02:47.481Z,4.20
2018-06-29T06:05:16.411Z,4.25
2018-06-29T06:07:47.177Z,4.40
2018-06-29T06:10:16.581Z,6.53
2018-06-29T06:12:46.919Z,4.77
2018-06-29T06:15:16.769Z,3.22
2018-06-29T06:17:45.646Z,4.03
2018-06-29T06:20:15.788Z,4.03
2018-06-29T06:22:44.872Z,3.13
2018-06-29T06:25:13.791Z,4.43
2018-06-29T06:27:42.608Z,7.60
2018-06-29T06:30:11.481Z,2.33
2018-06-29T06:32:40.358Z,5.53
2018-06-29T06:35:09.246Z,3.40
2018-06-29T06:37:38.111Z,5.67
2018-06-29T06:40:07.225Z,5.53
2018-06-29T06:42:36.077Z,4.10
2018-06-29T06:45:05.559Z,5.20
2018-06-29T06:47:34.441Z,2.53
2018-06-29T06:50:03.526Z,3.03
2018-06-29T06:52:32.324Z,6.70
2018-06-29T06:55:01.188Z,3.60
2018-06-29T06:57:30.114Z,4.10
2018-06-29T06:59:59.038Z,5.90
2018-06-29T07:02:27.923Z,3.63
2018-06-29T07:04:56.833Z,3.50
2018-06-29T07:07:25.720Z,2.07
2018-06-29T07:09:54.680Z,4.20
2018-06-29T07:12:23.605Z,3.40
2018-06-29T07:14:52.614Z,2.20
2018-06-29T07:17:21.514Z,4.83
2018-06-29T07:19:50.419Z,2.33
2018-06-29T07:22:19.288Z,3.20
2018-06-29T07:24:48.102Z,3.00
2018-06-29T07:27:16.974Z,2.13
2018-06-29T07:29:45.902Z,4.92
2018-06-29T07:32:14.891Z,2.20
2018-06-29T07:34:43.499Z,2.47
2018-06-29T07:37:12.369Z,3.70
2018-06-29T07:39:41.184Z,2.60
2018-06-29T07:42:10.089Z,1.73
2018-06-29T07:44:38.966Z,3.20
2018-06-29T07:47:08.432Z,1.67
2018-06-29T07:49:37.360Z,1.63
2018-06-29T07:52:06.222Z,2.40
2018-06-29T07:54:35.108Z,2.47
2018-06-29T07:57:04.916Z,1.70
2018-06-29T07:59:33.832Z,2.90
2018-06-29T08:02:02.755Z,1.70
2018-06-29T08:04:31.687Z,1.70
2018-06-29T08:07:00.617Z,2.47
2018-06-29T08:09:29.512Z,1.67
2018-06-29T08:11:58.426Z,2.50
2018-06-29T08:14:27.260Z,3.23
2018-06-29T08:16:56.210Z,3.10
2018-06-29T08:19:24.990Z,2.80
2018-06-29T08:21:53.855Z,3.37
2018-06-29T08:24:22.809Z,1.93
2018-06-29T08:26:51.691Z,1.50
2018-06-29T08:29:20.533Z,2.43
2018-06-29T08:31:49.402Z,2.07
2018-06-29T08:34:18.234Z,4.73
2018-06-29T08:36:47.086Z,1.70
2018-06-29T08:39:15.907Z,1.87
2018-06-29T08:41:44.749Z,1.17
2018-06-29T08:44:13.648Z,2.67
2018-06-29T08:46:42.491Z,1.53
2018-06-29T08:49:11.353Z,2.03
2018-06-29T08:51:40.468Z,1.80
2018-06-29T08:54:09.368Z,2.50
2018-06-29T08:56:38.237Z,1.87
2018-06-29T08:59:07.123Z,1.43
2018-06-29T09:01:35.991Z,2.10
2018-06-29T09:04:04.930Z,1.37
2018-06-29T09:06:33.812Z,1.60
2018-06-29T09:09:02.719Z,1.10
2018-06-29T09:11:31.564Z,2.40
2018-06-29T09:14:00.483Z,1.43
2018-06-29T09:16:29.344Z,2.53
2018-06-29T09:18:58.263Z,1.40
2018-06-29T09:21:27.158Z,1.50
2018-06-29T09:23:56.018Z,2.90
2018-06-29T09:26:24.892Z,0.90
2018-06-29T09:28:54.081Z,3.03
2018-06-29T09:31:23.005Z,1.33
2018-06-29T09:33:51.935Z,2.17
2018-06-29T09:36:20.982Z,1.53
2018-06-29T09:38:50.229Z,2.70
2018-06-29T09:41:19.261Z,1.65
2018-06-29T09:43:48.524Z,1.97
2018-06-29T09:46:18.296Z,3.37
2018-06-29T09:48:47.216Z,1.10
2018-06-29T09:51:16.103Z,3.00
2018-06-29T09:53:45.019Z,2.43
2018-06-29T09:56:13.899Z,2.40
2018-06-29T09:58:42.816Z,1.33
2018-06-29T10:01:12.086Z,1.20
2018-06-29T10:03:41.438Z,2.67
2018-06-29T10:06:10.351Z,1.70
2018-06-29T10:08:39.353Z,1.53
2018-06-29T10:11:08.411Z,1.93
2018-06-29T10:13:37.272Z,1.53
2018-06-29T10:16:06.138Z,1.70
2018-06-29T10:18:35.006Z,1.93
2018-06-29T10:21:04.771Z,3.33
2018-06-29T10:23:34.402Z,2.15
2018-06-29T10:26:03.403Z,1.60
2018-06-29T10:28:32.357Z,1.90
2018-06-29T10:31:01.267Z,3.97
2018-06-29T10:33:30.134Z,1.60
2018-06-29T10:35:59.129Z,1.80
2018-06-29T10:38:27.932Z,1.33
2018-06-29T10:40:56.820Z,2.07
2018-06-29T10:43:25.456Z,2.43
2018-06-29T10:48:28.566Z,2.70
2018-06-29T10:50:57.496Z,2.20
2018-06-29T10:53:27.731Z,1.33
2018-06-29T10:55:57.212Z,1.60
2018-06-29T10:58:26.065Z,1.70
2018-06-29T11:00:54.982Z,1.67
2018-06-29T11:03:24.459Z,5.07
2018-06-29T11:05:53.393Z,2.20
2018-06-29T11:08:22.745Z,2.77
2018-06-29T11:10:51.676Z,1.90
2018-06-29T11:13:20.514Z,2.10
2018-06-29T11:15:49.380Z,2.23
2018-06-29T11:18:18.338Z,1.67
2018-06-29T11:20:47.197Z,2.03
2018-06-29T11:23:16.089Z,1.60
2018-06-29T11:25:44.964Z,2.10
2018-06-29T11:28:14.287Z,1.70
2018-06-29T11:30:43.232Z,1.50
2018-06-29T11:33:12.132Z,2.40
2018-06-29T11:35:41.047Z,3.13
2018-06-29T11:38:10.487Z,1.60
2018-06-29T11:40:39.394Z,1.67
2018-06-29T11:43:08.261Z,1.80
2018-06-29T11:45:37.108Z,1.70
2018-06-29T11:48:05.989Z,2.67
2018-06-29T11:50:35.748Z,3.27
2018-06-29T11:53:05.147Z,3.40
2018-06-29T11:55:34.005Z,2.40
2018-06-29T11:58:02.910Z,1.90
2018-06-29T12:00:31.887Z,2.57
2018-06-29T12:03:00.744Z,2.10
2018-06-29T12:05:29.648Z,5.37
2018-06-29T12:07:58.618Z,2.30
2018-06-29T12:10:27.501Z,3.13
2018-06-29T12:12:56.351Z,2.67
2018-06-29T12:15:25.201Z,1.87
2018-06-29T12:17:54.082Z,1.77
2018-06-29T12:20:22.909Z,2.27
2018-06-29T12:22:51.797Z,2.70
2018-06-29T12:25:20.643Z,4.60
2018-06-29T12:27:49.529Z,3.27
2018-06-29T12:30:18.409Z,4.53
2018-06-29T12:32:47.278Z,1.80
2018-06-29T12:35:16.183Z,6.00
2018-06-29T12:37:45.064Z,2.77
2018-06-29T12:40:14.013Z,2.07
2018-06-29T12:42:42.885Z,2.27
2018-06-29T12:45:11.785Z,2.47
2018-06-29T12:47:40.776Z,2.10
2018-06-29T12:50:09.738Z,3.70
2018-06-29T12:52:38.703Z,2.20
2018-06-29T12:55:07.552Z,1.97
2018-06-29T12:57:36.443Z,4.20
2018-06-29T13:00:05.736Z,4.50
2018-06-29T13:02:34.624Z,1.80
2018-06-29T13:05:03.449Z,2.17
2018-06-29T13:07:32.296Z,2.20
2018-06-29T13:10:01.238Z,2.43
2018-06-29T13:12:30.193Z,5.57
2018-06-29T13:14:59.129Z,2.13
2018-06-29T13:17:28.048Z,2.67
2018-06-29T13:19:56.933Z,1.63
2018-06-29T13:22:25.791Z,2.87
2018-06-29T13:24:54.771Z,2.17
2018-06-29T13:27:23.570Z,3.03
2018-06-29T13:29:52.510Z,2.00
2018-06-29T13:32:21.458Z,1.80
2018-06-29T13:34:51.703Z,2.83
2018-06-29T13:37:20.584Z,3.53
2018-06-29T13:39:49.672Z,2.80
2018-06-29T13:42:18.984Z,1.83
2018-06-29T13:44:47.880Z,4.20
2018-06-29T13:47:16.829Z,4.03
2018-06-29T13:49:45.668Z,2.30
2018-06-29T13:52:14.681Z,3.40
2018-06-29T13:54:43.540Z,2.33
2018-06-29T13:57:12.444Z,2.73
2018-06-29T13:59:41.326Z,2.60
2018-06-29T14:02:10.377Z,5.73
2018-06-29T14:04:39.222Z,2.40
2018-06-29T14:07:08.260Z,3.07
2018-06-29T14:09:37.104Z,3.50
2018-06-29T14:12:06.098Z,4.30
2018-06-29T14:14:34.972Z,2.50
2018-06-29T14:17:04.277Z,3.27
2018-06-29T14:19:33.544Z,3.00
2018-06-29T14:22:02.479Z,2.70
2018-06-29T14:24:31.368Z,4.60
2018-06-29T14:27:00.275Z,2.60
2018-06-29T14:29:29.150Z,2.50
2018-06-29T14:31:58.041Z,5.47
2018-06-29T14:34:26.995Z,5.07
2018-06-29T14:36:55.922Z,2.33
2018-06-29T14:39:24.805Z,4.33
2018-06-29T14:41:53.690Z,3.83
2018-06-29T14:44:22.567Z,4.97
2018-06-29T14:46:51.492Z,4.43
2018-06-29T14:49:20.331Z,2.70
2018-06-29T14:51:49.223Z,9.17
2018-06-29T14:54:18.086Z,4.53
2018-06-29T14:56:47.022Z,4.67
2018-06-29T14:59:15.895Z,4.10
2018-06-29T15:01:44.852Z,4.40
2018-06-29T15:04:13.749Z,3.60
2018-06-29T15:06:42.945Z,5.20
2018-06-29T15:09:11.876Z,3.17
2018-06-29T15:11:40.747Z,4.97
2018-06-29T15:14:09.970Z,4.23
2018-06-29T15:16:38.854Z,4.47
2018-06-29T15:19:07.775Z,2.77
2018-06-29T15:21:36.720Z,2.90
2018-06-29T15:24:06.519Z,5.07
2018-06-29T15:26:35.425Z,4.07
2018-06-29T15:29:04.655Z,3.30
2018-06-29T15:31:33.548Z,2.93
2018-06-29T15:34:02.380Z,4.70
2018-06-29T15:36:31.262Z,2.90
2018-06-29T15:39:00.096Z,3.20
2018-06-29T15:41:28.915Z,3.70
2018-06-29T15:43:57.788Z,3.17
2018-06-29T15:46:26.811Z,4.90
2018-06-29T15:48:55.712Z,3.17
2018-06-29T15:51:24.557Z,4.70
2018-06-29T15:53:53.390Z,5.93
2018-06-29T15:56:22.200Z,4.60
2018-06-29T15:58:50.995Z,2.13
2018-06-29T16:01:19.871Z,3.53
2018-06-29T16:03:49.333Z,4.17
2018-06-29T16:06:18.297Z,3.72
2018-06-29T16:08:47.177Z,2.87
2018-06-29T16:11:16.039Z,6.08
2018-06-29T16:13:44.887Z,2.23
2018-06-29T16:16:13.786Z,2.90
2018-06-29T16:18:42.807Z,2.43
2018-06-29T16:21:12.103Z,4.00
2018-06-29T16:23:40.948Z,4.70
2018-06-29T16:26:10.017Z,2.97
2018-06-29T16:28:38.852Z,5.80
2018-06-29T16:31:07.709Z,3.37
2018-06-29T16:33:36.559Z,4.05
2018-06-29T16:36:05.434Z,5.50
2018-06-29T16:38:34.308Z,7.97
2018-06-29T16:41:03.179Z,4.57
2018-06-29T16:43:32.133Z,6.40
2018-06-29T16:46:00.993Z,4.23
2018-06-29T16:48:29.936Z,2.90
2018-06-29T16:50:58.787Z,5.30
2018-06-29T16:53:27.632Z,2.20
2018-06-29T16:55:56.450Z,3.27
2018-06-29T16:58:25.421Z,4.63
2018-06-29T17:00:54.298Z,4.33
2018-06-29T17:03:23.250Z,4.60
2018-06-29T17:05:52.109Z,2.40
2018-06-29T17:08:21.007Z,4.10
2018-06-29T17:10:49.921Z,4.23
2018-06-29T17:13:18.788Z,6.03
2018-06-29T17:15:47.661Z,6.55
2018-06-29T17:18:16.551Z,3.40
2018-06-29T17:20:45.505Z,4.87
2018-06-29T17:23:14.432Z,3.57
2018-06-29T17:25:43.355Z,3.33
2018-06-29T17:28:12.156Z,3.63
2018-06-29T17:30:41.032Z,6.25
2018-06-29T17:33:09.914Z,5.97
2018-06-29T17:35:38.777Z,3.90
2018-06-29T17:38:07.645Z,2.60
2018-06-29T17:40:36.535Z,6.23
2018-06-29T17:43:05.414Z,3.27
2018-06-29T17:45:34.249Z,6.57
2018-06-29T17:48:03.494Z,4.63
2018-06-29T17:50:32.677Z,3.05
2018-06-29T17:53:01.526Z,4.30
2018-06-29T17:55:30.420Z,4.70
2018-06-29T17:57:59.860Z,4.37
2018-06-29T18:00:28.742Z,4.37
2018-06-29T18:02:57.611Z,3.43
2018-06-29T18:05:26.534Z,5.30
2018-06-29T18:07:55.497Z,6.03
2018-06-29T18:10:24.933Z,5.37
2018-06-29T18:12:53.945Z,3.63
2018-06-29T18:15:22.881Z,5.20
2018-06-29T18:17:51.854Z,8.00
2018-06-29T18:20:21.551Z,4.77
2018-06-29T18:22:50.528Z,4.63
2018-06-29T18:25:19.464Z,6.07
2018-06-29T18:27:48.376Z,3.20
2018-06-29T18:30:17.334Z,6.03
2018-06-29T18:32:46.524Z,5.10
2018-06-29T18:35:15.368Z,5.12
2018-06-29T18:37:45.421Z,5.43
2018-06-29T18:40:14.326Z,4.22
2018-06-29T18:42:45.319Z,3.50
2018-06-29T18:45:16.384Z,8.50
2018-06-29T18:47:46.460Z,7.50
2018-06-29T18:50:15.321Z,4.60
2018-06-29T18:52:45.107Z,4.40
2018-06-29T18:55:15.179Z,5.07
2018-06-29T18:57:45.010Z,7.03
2018-06-29T19:00:13.966Z,4.50
2018-06-29T19:02:43.989Z,5.83
2018-06-29T19:05:12.945Z,4.97
2018-06-29T19:07:42.075Z,6.53
2018-06-29T19:10:10.926Z,4.53
2018-06-29T19:12:40.188Z,4.63
2018-06-29T19:15:09.544Z,5.33
2018-06-29T19:17:38.473Z,3.50
2018-06-29T19:20:07.450Z,6.63
2018-06-29T19:22:36.372Z,6.90
2018-06-29T19:25:05.498Z,7.10
2018-06-29T19:27:35.687Z,6.70
2018-06-29T19:30:05.277Z,4.23
2018-06-29T19:32:34.242Z,5.77
2018-06-29T19:35:03.131Z,4.07
2018-06-29T19:37:32.000Z,7.83
2018-06-29T19:40:00.866Z,6.30
2018-06-29T19:42:29.848Z,6.87
2018-06-29T19:44:59.176Z,3.37
2018-06-29T19:47:28.037Z,4.50
2018-06-29T19:49:58.420Z,6.83
2018-06-29T19:52:27.334Z,2.60
2018-06-29T19:54:56.166Z,9.33
2018-06-29T19:57:25.116Z,4.40
2018-06-29T19:59:53.994Z,7.20
2018-06-29T20:02:25.625Z,5.60
2018-06-29T20:04:55.781Z,5.67
2018-06-29T20:07:25.002Z,12.17
2018-06-29T20:09:53.636Z,6.03
2018-06-29T20:12:22.385Z,5.93
2018-06-29T20:14:51.228Z,7.23
2018-06-29T20:17:20.199Z,5.95
2018-06-29T20:19:49.037Z,6.70
2018-06-29T20:22:17.900Z,6.37
2018-06-29T20:24:46.800Z,6.10
2018-06-29T20:27:16.222Z,7.87
2018-06-29T20:29:45.232Z,10.40
2018-06-29T20:32:14.176Z,4.57
2018-06-29T20:34:43.510Z,7.27
2018-06-29T20:37:12.457Z,11.23
2018-06-29T20:39:41.457Z,6.53
2018-06-29T20:42:10.397Z,8.47
2018-06-29T20:44:39.320Z,7.17
2018-06-29T20:47:08.459Z,6.77
2018-06-29T20:49:37.468Z,6.93
2018-06-29T20:52:06.821Z,7.37
2018-06-29T20:54:35.678Z,10.43
2018-06-29T20:57:04.697Z,8.40
2018-06-29T20:59:34.221Z,7.93
2018-06-29T21:02:03.126Z,5.87
2018-06-29T21:04:32.172Z,8.00
2018-06-29T21:07:06.606Z,9.73
2018-06-29T21:09:35.969Z,7.47
2018-06-29T21:12:04.874Z,7.23
2018-06-29T21:14:35.198Z,8.97
2018-06-29T21:17:04.957Z,9.10
2018-06-29T21:19:34.207Z,8.07
2018-06-29T21:22:03.034Z,7.67
2018-06-29T21:24:31.979Z,9.60
2018-06-29T21:27:00.861Z,9.17
2018-06-29T21:29:29.810Z,10.57
2018-06-29T21:31:58.826Z,9.97
2018-06-29T21:34:27.695Z,8.97
2018-06-29T21:36:56.627Z,10.13
2018-06-29T21:39:25.495Z,8.60
2018-06-29T21:41:54.344Z,8.37
2018-06-29T21:44:23.255Z,8.50
2018-06-29T21:46:52.171Z,7.63
2018-06-29T21:49:21.663Z,9.80
2018-06-29T21:51:50.216Z,11.27
2018-06-29T21:54:19.084Z,8.00
2018-06-29T21:56:47.883Z,8.63
2018-06-29T21:59:18.996Z,9.10
2018-06-29T22:01:50.179Z,9.20
2018-06-29T22:04:19.901Z,8.90
2018-06-29T22:06:48.423Z,8.57
2018-06-29T22:09:16.951Z,7.10
2018-06-29T22:11:45.471Z,11.17
2018-06-29T22:14:14.052Z,9.53
2018-06-29T22:16:42.607Z,8.97
2018-06-29T22:19:11.174Z,10.13
2018-06-29T22:21:39.720Z,9.67
2018-06-29T22:24:08.305Z,12.50
2018-06-29T22:26:36.823Z,13.30
2018-06-29T22:29:05.356Z,12.67
2018-06-29T22:31:33.881Z,10.57
2018-06-29T22:34:02.412Z,8.93
2018-06-29T22:36:31.014Z,9.00
2018-06-29T22:38:59.559Z,11.50
2018-06-29T22:41:28.120Z,14.53
2018-06-29T22:43:56.656Z,11.70
2018-06-29T22:46:25.191Z,12.03
2018-06-29T22:48:53.701Z,9.97
2018-06-29T22:51:22.267Z,8.93
2018-06-29T22:53:53.523Z,14.47
2018-06-29T22:56:22.041Z,10.05
2018-06-29T22:58:50.556Z,10.43
2018-06-29T23:01:19.115Z,9.60
2018-06-29T23:03:53.542Z,9.80
2018-06-29T23:06:22.818Z,9.17
2018-06-29T23:08:51.336Z,9.73
2018-06-29T23:11:19.885Z,7.83
2018-06-29T23:13:48.441Z,10.47
2018-06-29T23:16:17.556Z,12.40
2018-06-29T23:18:46.242Z,12.60
2018-06-29T23:21:14.792Z,8.20
2018-06-29T23:23:43.718Z,10.60
2018-06-29T23:26:12.512Z,7.40
2018-06-29T23:28:41.276Z,12.00
2018-06-29T23:31:10.053Z,12.53
2018-06-29T23:33:40.440Z,7.43
2018-06-29T23:36:09.135Z,13.17
2018-06-29T23:38:37.975Z,8.70
2018-06-29T23:41:06.474Z,9.40
2018-06-29T23:43:35.402Z,9.43
2018-06-29T23:46:04.588Z,9.90
2018-06-29T23:48:33.324Z,10.43
2018-06-29T23:51:01.859Z,13.23
2018-06-29T23:53:30.350Z,10.47
2018-06-29T23:55:59.038Z,8.67
2018-06-29T23:58:27.579Z,14.37
